sensor_id;sensor_type;location;lat;lon;timestamp;P1;durP1;ratioP1;P2;durP2;ratioP2
18170;SDS011;9210;48.358;10.902;2022-10-16T00:00:58;8.53;;;3.10;;
18170;SDS011;9210;48.358;10.902;2022-10-16T00:03:32;5.60;;;2.60;;
18170;SDS011;9210;48.358;10.902;2022-10-16T00:06:00;6.30;;;3.00;;
18170;SDS011;9210;48.358;10.902;2022-10-16T00:08:29;5.67;;;2.90;;
18170;SDS011;9210;48.358;10.902;2022-10-16T00:11:03;6.20;;;2.90;;
18170;SDS011;9210;48.358;10.902;2022-10-16T00:13:31;5.40;;;2.77;;
18170;SDS011;9210;48.358;10.902;2022-10-16T00:16:01;4.27;;;2.67;;
18170;SDS011;9210;48.358;10.902;2022-10-16T00:18:29;6.27;;;2.70;;
18170;SDS011;9210;48.358;10.902;2022-10-16T00:21:01;6.03;;;2.60;;
18170;SDS011;9210;48.358;10.902;2022-10-16T00:23:30;6.70;;;2.50;;
18170;SDS011;9210;48.358;10.902;2022-10-16T00:25:59;5.60;;;2.60;;
18170;SDS011;9210;48.358;10.902;2022-10-16T00:28:30;4.83;;;2.87;;
18170;SDS011;9210;48.358;10.902;2022-10-16T00:31:02;5.17;;;2.80;;
18170;SDS011;9210;48.358;10.902;2022-10-16T00:33:31;6.97;;;2.50;;
18170;SDS011;9210;48.358;10.902;2022-10-16T00:36:03;4.47;;;2.30;;
18170;SDS011;9210;48.358;10.902;2022-10-16T00:38:32;4.77;;;2.53;;
18170;SDS011;9210;48.358;10.902;2022-10-16T00:41:03;4.73;;;2.30;;
18170;SDS011;9210;48.358;10.902;2022-10-16T00:43:34;4.27;;;2.53;;
18170;SDS011;9210;48.358;10.902;2022-10-16T00:46:04;9.87;;;2.33;;
18170;SDS011;9210;48.358;10.902;2022-10-16T00:48:33;3.80;;;2.37;;
18170;SDS011;9210;48.358;10.902;2022-10-16T00:51:04;6.43;;;2.77;;
18170;SDS011;9210;48.358;10.902;2022-10-16T00:53:34;4.03;;;2.07;;
18170;SDS011;9210;48.358;10.902;2022-10-16T00:56:03;5.93;;;1.90;;
18170;SDS011;9210;48.358;10.902;2022-10-16T00:58:31;6.13;;;1.93;;
18170;SDS011;9210;48.358;10.902;2022-10-16T01:01:01;6.17;;;1.90;;
18170;SDS011;9210;48.358;10.902;2022-10-16T01:03:31;4.77;;;2.30;;
18170;SDS011;9210;48.358;10.902;2022-10-16T01:06:06;5.53;;;2.20;;
18170;SDS011;9210;48.358;10.902;2022-10-16T01:08:44;5.73;;;2.27;;
18170;SDS011;9210;48.358;10.902;2022-10-16T01:11:20;5.07;;;2.30;;
18170;SDS011;9210;48.358;10.902;2022-10-16T01:13:53;6.07;;;2.10;;
18170;SDS011;9210;48.358;10.902;2022-10-16T01:16:24;6.13;;;2.50;;
18170;SDS011;9210;48.358;10.902;2022-10-16T01:18:57;4.03;;;2.30;;
18170;SDS011;9210;48.358;10.902;2022-10-16T01:21:31;2.60;;;2.00;;
18170;SDS011;9210;48.358;10.902;2022-10-16T01:24:01;5.60;;;2.00;;
18170;SDS011;9210;48.358;10.902;2022-10-16T01:26:35;3.80;;;2.03;;
18170;SDS011;9210;48.358;10.902;2022-10-16T01:32:13;4.23;;;2.00;;
18170;SDS011;9210;48.358;10.902;2022-10-16T01:34:45;3.73;;;2.07;;
18170;SDS011;9210;48.358;10.902;2022-10-16T01:37:25;4.30;;;2.00;;
18170;SDS011;9210;48.358;10.902;2022-10-16T01:39:55;2.67;;;2.00;;
18170;SDS011;9210;48.358;10.902;2022-10-16T01:42:27;3.67;;;2.37;;
18170;SDS011;9210;48.358;10.902;2022-10-16T01:44:56;3.50;;;2.20;;
18170;SDS011;9210;48.358;10.902;2022-10-16T01:47:28;6.90;;;2.83;;
18170;SDS011;9210;48.358;10.902;2022-10-16T01:50:01;4.57;;;2.20;;
18170;SDS011;9210;48.358;10.902;2022-10-16T01:52:31;3.43;;;2.40;;
18170;SDS011;9210;48.358;10.902;2022-10-16T01:55:01;3.47;;;2.20;;
18170;SDS011;9210;48.358;10.902;2022-10-16T01:57:30;5.00;;;2.20;;
18170;SDS011;9210;48.358;10.902;2022-10-16T02:00:00;4.37;;;2.53;;
18170;SDS011;9210;48.358;10.902;2022-10-16T02:02:38;4.50;;;2.50;;
18170;SDS011;9210;48.358;10.902;2022-10-16T02:05:10;6.07;;;2.77;;
18170;SDS011;9210;48.358;10.902;2022-10-16T02:07:40;4.23;;;2.33;;
18170;SDS011;9210;48.358;10.902;2022-10-16T02:10:09;6.00;;;2.70;;
18170;SDS011;9210;48.358;10.902;2022-10-16T02:12:39;7.30;;;2.97;;
18170;SDS011;9210;48.358;10.902;2022-10-16T02:15:08;5.33;;;2.27;;
18170;SDS011;9210;48.358;10.902;2022-10-16T02:17:38;4.77;;;2.30;;
18170;SDS011;9210;48.358;10.902;2022-10-16T02:20:07;5.63;;;2.60;;
18170;SDS011;9210;48.358;10.902;2022-10-16T02:22:38;5.23;;;2.40;;
18170;SDS011;9210;48.358;10.902;2022-10-16T02:25:08;7.23;;;2.20;;
18170;SDS011;9210;48.358;10.902;2022-10-16T02:27:38;2.60;;;1.73;;
18170;SDS011;9210;48.358;10.902;2022-10-16T02:30:10;5.00;;;2.40;;
18170;SDS011;9210;48.358;10.902;2022-10-16T02:32:44;5.67;;;1.97;;
18170;SDS011;9210;48.358;10.902;2022-10-16T02:35:13;5.10;;;2.00;;
18170;SDS011;9210;48.358;10.902;2022-10-16T02:37:43;3.43;;;1.70;;
18170;SDS011;9210;48.358;10.902;2022-10-16T02:40:12;4.53;;;2.07;;
18170;SDS011;9210;48.358;10.902;2022-10-16T02:42:44;9.23;;;2.43;;
18170;SDS011;9210;48.358;10.902;2022-10-16T02:45:13;3.60;;;2.30;;
18170;SDS011;9210;48.358;10.902;2022-10-16T02:47:42;4.20;;;1.70;;
18170;SDS011;9210;48.358;10.902;2022-10-16T02:50:11;6.37;;;2.27;;
18170;SDS011;9210;48.358;10.902;2022-10-16T02:52:39;4.67;;;2.27;;
18170;SDS011;9210;48.358;10.902;2022-10-16T02:55:08;9.13;;;2.40;;
18170;SDS011;9210;48.358;10.902;2022-10-16T02:57:36;6.93;;;2.23;;
18170;SDS011;9210;48.358;10.902;2022-10-16T03:00:07;3.77;;;2.10;;
18170;SDS011;9210;48.358;10.902;2022-10-16T03:02:36;4.40;;;2.00;;
18170;SDS011;9210;48.358;10.902;2022-10-16T03:05:06;5.23;;;2.17;;
18170;SDS011;9210;48.358;10.902;2022-10-16T03:07:35;3.13;;;2.10;;
18170;SDS011;9210;48.358;10.902;2022-10-16T03:10:03;4.40;;;1.90;;
18170;SDS011;9210;48.358;10.902;2022-10-16T03:12:32;6.77;;;2.10;;
18170;SDS011;9210;48.358;10.902;2022-10-16T03:15:01;5.70;;;1.90;;
18170;SDS011;9210;48.358;10.902;2022-10-16T03:17:29;3.23;;;1.90;;
18170;SDS011;9210;48.358;10.902;2022-10-16T03:19:58;4.20;;;2.00;;
18170;SDS011;9210;48.358;10.902;2022-10-16T03:22:30;6.43;;;2.10;;
18170;SDS011;9210;48.358;10.902;2022-10-16T03:24:59;5.67;;;1.80;;
18170;SDS011;9210;48.358;10.902;2022-10-16T03:27:28;4.33;;;1.70;;
18170;SDS011;9210;48.358;10.902;2022-10-16T03:29:57;6.80;;;1.97;;
18170;SDS011;9210;48.358;10.902;2022-10-16T03:32:29;3.87;;;2.10;;
18170;SDS011;9210;48.358;10.902;2022-10-16T03:34:57;5.60;;;2.27;;
18170;SDS011;9210;48.358;10.902;2022-10-16T03:37:26;4.87;;;2.00;;
18170;SDS011;9210;48.358;10.902;2022-10-16T03:39:59;5.17;;;1.77;;
18170;SDS011;9210;48.358;10.902;2022-10-16T03:42:27;3.83;;;1.90;;
18170;SDS011;9210;48.358;10.902;2022-10-16T03:44:56;3.20;;;1.77;;
18170;SDS011;9210;48.358;10.902;2022-10-16T03:47:27;5.10;;;1.60;;
18170;SDS011;9210;48.358;10.902;2022-10-16T03:49:56;2.53;;;1.60;;
18170;SDS011;9210;48.358;10.902;2022-10-16T03:52:24;6.43;;;2.07;;
18170;SDS011;9210;48.358;10.902;2022-10-16T03:54:53;4.63;;;1.80;;
18170;SDS011;9210;48.358;10.902;2022-10-16T03:57:23;6.80;;;2.03;;
18170;SDS011;9210;48.358;10.902;2022-10-16T03:59:52;3.97;;;1.80;;
18170;SDS011;9210;48.358;10.902;2022-10-16T04:02:20;4.20;;;2.30;;
18170;SDS011;9210;48.358;10.902;2022-10-16T04:04:49;5.53;;;1.87;;
18170;SDS011;9210;48.358;10.902;2022-10-16T04:07:17;5.47;;;1.90;;
18170;SDS011;9210;48.358;10.902;2022-10-16T04:09:46;6.67;;;2.63;;
18170;SDS011;9210;48.358;10.902;2022-10-16T04:12:14;6.70;;;2.00;;
18170;SDS011;9210;48.358;10.902;2022-10-16T04:14:44;4.40;;;1.83;;
18170;SDS011;9210;48.358;10.902;2022-10-16T04:17:13;5.33;;;2.10;;
18170;SDS011;9210;48.358;10.902;2022-10-16T04:19:41;3.93;;;2.23;;
18170;SDS011;9210;48.358;10.902;2022-10-16T04:22:10;5.80;;;1.87;;
18170;SDS011;9210;48.358;10.902;2022-10-16T04:24:38;4.57;;;1.73;;
18170;SDS011;9210;48.358;10.902;2022-10-16T04:27:07;3.80;;;1.70;;
18170;SDS011;9210;48.358;10.902;2022-10-16T04:29:35;4.93;;;1.93;;
18170;SDS011;9210;48.358;10.902;2022-10-16T04:32:05;7.30;;;2.13;;
18170;SDS011;9210;48.358;10.902;2022-10-16T04:34:38;2.97;;;1.70;;
18170;SDS011;9210;48.358;10.902;2022-10-16T04:37:10;4.00;;;1.87;;
18170;SDS011;9210;48.358;10.902;2022-10-16T04:39:38;3.47;;;2.00;;
18170;SDS011;9210;48.358;10.902;2022-10-16T04:42:10;2.47;;;1.53;;
18170;SDS011;9210;48.358;10.902;2022-10-16T04:44:39;5.60;;;1.93;;
18170;SDS011;9210;48.358;10.902;2022-10-16T04:47:09;2.43;;;1.53;;
18170;SDS011;9210;48.358;10.902;2022-10-16T04:49:38;6.77;;;1.90;;
18170;SDS011;9210;48.358;10.902;2022-10-16T04:52:06;3.63;;;1.60;;
18170;SDS011;9210;48.358;10.902;2022-10-16T04:54:35;3.70;;;1.60;;
18170;SDS011;9210;48.358;10.902;2022-10-16T04:57:06;4.83;;;2.03;;
18170;SDS011;9210;48.358;10.902;2022-10-16T04:59:35;3.30;;;1.97;;
18170;SDS011;9210;48.358;10.902;2022-10-16T05:02:03;5.37;;;1.80;;
18170;SDS011;9210;48.358;10.902;2022-10-16T05:04:33;5.43;;;1.90;;
18170;SDS011;9210;48.358;10.902;2022-10-16T05:07:02;4.23;;;2.00;;
18170;SDS011;9210;48.358;10.902;2022-10-16T05:09:30;5.60;;;2.10;;
18170;SDS011;9210;48.358;10.902;2022-10-16T05:11:58;5.33;;;1.60;;
18170;SDS011;9210;48.358;10.902;2022-10-16T05:14:27;2.87;;;1.90;;
18170;SDS011;9210;48.358;10.902;2022-10-16T05:16:55;3.30;;;1.60;;
18170;SDS011;9210;48.358;10.902;2022-10-16T05:19:24;6.27;;;1.80;;
18170;SDS011;9210;48.358;10.902;2022-10-16T05:21:55;4.70;;;1.87;;
18170;SDS011;9210;48.358;10.902;2022-10-16T05:24:24;3.50;;;1.77;;
18170;SDS011;9210;48.358;10.902;2022-10-16T05:26:52;4.00;;;1.60;;
18170;SDS011;9210;48.358;10.902;2022-10-16T05:29:21;6.10;;;1.73;;
18170;SDS011;9210;48.358;10.902;2022-10-16T05:31:50;6.67;;;1.87;;
18170;SDS011;9210;48.358;10.902;2022-10-16T05:34:19;5.43;;;1.93;;
18170;SDS011;9210;48.358;10.902;2022-10-16T05:36:47;11.43;;;2.10;;
18170;SDS011;9210;48.358;10.902;2022-10-16T05:39:17;4.90;;;2.07;;
18170;SDS011;9210;48.358;10.902;2022-10-16T05:41:46;4.90;;;1.90;;
18170;SDS011;9210;48.358;10.902;2022-10-16T05:44:14;5.47;;;1.70;;
18170;SDS011;9210;48.358;10.902;2022-10-16T05:46:50;4.10;;;1.70;;
18170;SDS011;9210;48.358;10.902;2022-10-16T05:49:18;3.73;;;1.60;;
18170;SDS011;9210;48.358;10.902;2022-10-16T05:51:46;6.53;;;1.57;;
18170;SDS011;9210;48.358;10.902;2022-10-16T05:54:15;5.17;;;1.67;;
18170;SDS011;9210;48.358;10.902;2022-10-16T05:56:45;5.07;;;1.70;;
18170;SDS011;9210;48.358;10.902;2022-10-16T05:59:15;3.93;;;1.60;;
18170;SDS011;9210;48.358;10.902;2022-10-16T06:01:44;6.50;;;1.80;;
18170;SDS011;9210;48.358;10.902;2022-10-16T06:04:12;3.57;;;1.43;;
18170;SDS011;9210;48.358;10.902;2022-10-16T06:06:41;2.97;;;1.50;;
18170;SDS011;9210;48.358;10.902;2022-10-16T06:09:09;5.50;;;1.50;;
18170;SDS011;9210;48.358;10.902;2022-10-16T06:11:38;3.33;;;1.57;;
18170;SDS011;9210;48.358;10.902;2022-10-16T06:14:08;2.93;;;1.50;;
18170;SDS011;9210;48.358;10.902;2022-10-16T06:16:37;6.03;;;1.70;;
18170;SDS011;9210;48.358;10.902;2022-10-16T06:19:06;4.17;;;2.00;;
18170;SDS011;9210;48.358;10.902;2022-10-16T06:21:35;3.27;;;1.60;;
18170;SDS011;9210;48.358;10.902;2022-10-16T06:24:04;3.83;;;1.73;;
18170;SDS011;9210;48.358;10.902;2022-10-16T06:26:32;2.67;;;1.60;;
18170;SDS011;9210;48.358;10.902;2022-10-16T06:29:01;6.13;;;2.00;;
18170;SDS011;9210;48.358;10.902;2022-10-16T06:31:31;3.80;;;1.60;;
18170;SDS011;9210;48.358;10.902;2022-10-16T06:34:00;5.33;;;1.60;;
18170;SDS011;9210;48.358;10.902;2022-10-16T06:36:31;5.70;;;1.60;;
18170;SDS011;9210;48.358;10.902;2022-10-16T06:38:59;5.97;;;1.73;;
18170;SDS011;9210;48.358;10.902;2022-10-16T06:41:27;3.40;;;1.80;;
18170;SDS011;9210;48.358;10.902;2022-10-16T06:44:04;4.57;;;1.77;;
18170;SDS011;9210;48.358;10.902;2022-10-16T06:46:34;4.63;;;1.40;;
18170;SDS011;9210;48.358;10.902;2022-10-16T06:49:03;5.87;;;1.90;;
18170;SDS011;9210;48.358;10.902;2022-10-16T06:51:31;2.70;;;1.53;;
18170;SDS011;9210;48.358;10.902;2022-10-16T06:54:05;3.20;;;1.90;;
18170;SDS011;9210;48.358;10.902;2022-10-16T06:56:35;6.23;;;2.50;;
18170;SDS011;9210;48.358;10.902;2022-10-16T06:59:04;3.80;;;1.80;;
18170;SDS011;9210;48.358;10.902;2022-10-16T07:01:32;3.53;;;1.70;;
18170;SDS011;9210;48.358;10.902;2022-10-16T07:04:02;4.23;;;1.83;;
18170;SDS011;9210;48.358;10.902;2022-10-16T07:06:31;2.10;;;1.50;;
18170;SDS011;9210;48.358;10.902;2022-10-16T07:09:01;4.60;;;1.53;;
18170;SDS011;9210;48.358;10.902;2022-10-16T07:11:30;2.63;;;1.47;;
18170;SDS011;9210;48.358;10.902;2022-10-16T07:13:58;4.53;;;1.60;;
18170;SDS011;9210;48.358;10.902;2022-10-16T07:16:29;4.47;;;1.63;;
18170;SDS011;9210;48.358;10.902;2022-10-16T07:18:59;2.40;;;1.43;;
18170;SDS011;9210;48.358;10.902;2022-10-16T07:21:32;4.90;;;1.30;;
18170;SDS011;9210;48.358;10.902;2022-10-16T07:24:03;3.00;;;1.37;;
18170;SDS011;9210;48.358;10.902;2022-10-16T07:26:33;3.73;;;1.60;;
18170;SDS011;9210;48.358;10.902;2022-10-16T07:29:01;2.57;;;1.40;;
18170;SDS011;9210;48.358;10.902;2022-10-16T07:31:30;2.40;;;1.30;;
18170;SDS011;9210;48.358;10.902;2022-10-16T07:33:59;1.70;;;1.10;;
18170;SDS011;9210;48.358;10.902;2022-10-16T07:36:28;2.50;;;1.40;;
18170;SDS011;9210;48.358;10.902;2022-10-16T07:38:58;2.58;;;1.27;;
18170;SDS011;9210;48.358;10.902;2022-10-16T07:41:26;3.40;;;1.50;;
18170;SDS011;9210;48.358;10.902;2022-10-16T07:43:55;3.22;;;1.23;;
18170;SDS011;9210;48.358;10.902;2022-10-16T07:46:26;2.92;;;1.27;;
18170;SDS011;9210;48.358;10.902;2022-10-16T07:48:55;6.47;;;1.20;;
18170;SDS011;9210;48.358;10.902;2022-10-16T07:51:24;2.10;;;1.08;;
18170;SDS011;9210;48.358;10.902;2022-10-16T07:53:53;1.63;;;1.15;;
18170;SDS011;9210;48.358;10.902;2022-10-16T07:56:24;1.75;;;1.00;;
18170;SDS011;9210;48.358;10.902;2022-10-16T07:58:52;2.65;;;1.13;;
18170;SDS011;9210;48.358;10.902;2022-10-16T08:01:22;1.50;;;1.00;;
18170;SDS011;9210;48.358;10.902;2022-10-16T08:03:51;3.35;;;1.38;;
18170;SDS011;9210;48.358;10.902;2022-10-16T08:06:21;1.60;;;1.20;;
18170;SDS011;9210;48.358;10.902;2022-10-16T08:08:53;2.35;;;1.20;;
18170;SDS011;9210;48.358;10.902;2022-10-16T08:11:23;2.28;;;1.30;;
18170;SDS011;9210;48.358;10.902;2022-10-16T08:13:52;3.35;;;1.20;;
18170;SDS011;9210;48.358;10.902;2022-10-16T08:16:20;1.73;;;1.08;;
18170;SDS011;9210;48.358;10.902;2022-10-16T08:18:49;2.53;;;1.30;;
18170;SDS011;9210;48.358;10.902;2022-10-16T08:21:18;2.97;;;1.30;;
18170;SDS011;9210;48.358;10.902;2022-10-16T08:23:47;2.28;;;1.30;;
18170;SDS011;9210;48.358;10.902;2022-10-16T08:26:24;1.90;;;1.25;;
18170;SDS011;9210;48.358;10.902;2022-10-16T08:28:53;2.42;;;1.33;;
18170;SDS011;9210;48.358;10.902;2022-10-16T08:31:22;3.95;;;1.20;;
18170;SDS011;9210;48.358;10.902;2022-10-16T08:33:50;5.65;;;1.70;;
18170;SDS011;9210;48.358;10.902;2022-10-16T08:36:19;1.60;;;1.20;;
18170;SDS011;9210;48.358;10.902;2022-10-16T08:38:48;3.08;;;1.30;;
18170;SDS011;9210;48.358;10.902;2022-10-16T08:41:20;1.50;;;1.30;;
18170;SDS011;9210;48.358;10.902;2022-10-16T08:43:58;1.35;;;1.17;;
18170;SDS011;9210;48.358;10.902;2022-10-16T08:46:33;0.85;;;0.80;;
18170;SDS011;9210;48.358;10.902;2022-10-16T08:49:05;2.10;;;1.20;;
18170;SDS011;9210;48.358;10.902;2022-10-16T08:51:36;4.90;;;1.30;;
18170;SDS011;9210;48.358;10.902;2022-10-16T08:54:14;2.88;;;1.20;;
18170;SDS011;9210;48.358;10.902;2022-10-16T08:56:47;2.78;;;1.00;;
18170;SDS011;9210;48.358;10.902;2022-10-16T08:59:19;2.55;;;1.25;;
18170;SDS011;9210;48.358;10.902;2022-10-16T09:01:49;3.55;;;1.00;;
18170;SDS011;9210;48.358;10.902;2022-10-16T09:07:01;4.10;;;1.27;;
18170;SDS011;9210;48.358;10.902;2022-10-16T09:09:36;6.70;;;1.25;;
18170;SDS011;9210;48.358;10.902;2022-10-16T09:12:08;1.90;;;0.90;;
18170;SDS011;9210;48.358;10.902;2022-10-16T09:14:43;6.38;;;1.10;;
18170;SDS011;9210;48.358;10.902;2022-10-16T09:17:29;2.80;;;1.10;;
18170;SDS011;9210;48.358;10.902;2022-10-16T09:20:04;3.35;;;1.05;;
18170;SDS011;9210;48.358;10.902;2022-10-16T09:22:38;1.52;;;1.02;;
18170;SDS011;9210;48.358;10.902;2022-10-16T09:25:10;4.43;;;1.20;;
18170;SDS011;9210;48.358;10.902;2022-10-16T09:27:39;1.30;;;0.82;;
18170;SDS011;9210;48.358;10.902;2022-10-16T09:30:13;8.65;;;1.90;;
18170;SDS011;9210;48.358;10.902;2022-10-16T09:32:43;1.85;;;0.85;;
18170;SDS011;9210;48.358;10.902;2022-10-16T09:35:13;3.30;;;0.88;;
18170;SDS011;9210;48.358;10.902;2022-10-16T09:37:42;4.28;;;1.00;;
18170;SDS011;9210;48.358;10.902;2022-10-16T09:40:23;4.95;;;0.90;;
18170;SDS011;9210;48.358;10.902;2022-10-16T09:42:53;1.00;;;0.75;;
18170;SDS011;9210;48.358;10.902;2022-10-16T09:45:25;2.00;;;0.82;;
18170;SDS011;9210;48.358;10.902;2022-10-16T09:47:53;1.98;;;0.80;;
18170;SDS011;9210;48.358;10.902;2022-10-16T09:50:24;1.70;;;0.98;;
18170;SDS011;9210;48.358;10.902;2022-10-16T09:53:05;3.10;;;1.10;;
18170;SDS011;9210;48.358;10.902;2022-10-16T09:55:34;1.27;;;0.70;;
18170;SDS011;9210;48.358;10.902;2022-10-16T09:58:02;4.13;;;0.90;;
18170;SDS011;9210;48.358;10.902;2022-10-16T10:00:32;1.75;;;0.88;;
18170;SDS011;9210;48.358;10.902;2022-10-16T10:03:00;1.10;;;0.90;;
18170;SDS011;9210;48.358;10.902;2022-10-16T10:05:29;3.58;;;1.00;;
18170;SDS011;9210;48.358;10.902;2022-10-16T10:07:58;4.70;;;1.52;;
18170;SDS011;9210;48.358;10.902;2022-10-16T10:10:27;2.30;;;1.00;;
18170;SDS011;9210;48.358;10.902;2022-10-16T10:12:56;1.25;;;0.90;;
18170;SDS011;9210;48.358;10.902;2022-10-16T10:15:25;3.22;;;0.90;;
18170;SDS011;9210;48.358;10.902;2022-10-16T10:17:56;6.47;;;1.30;;
18170;SDS011;9210;48.358;10.902;2022-10-16T10:20:26;1.75;;;0.73;;
18170;SDS011;9210;48.358;10.902;2022-10-16T10:22:55;3.63;;;0.85;;
18170;SDS011;9210;48.358;10.902;2022-10-16T10:25:36;2.13;;;1.00;;
18170;SDS011;9210;48.358;10.902;2022-10-16T10:28:17;1.58;;;1.10;;
18170;SDS011;9210;48.358;10.902;2022-10-16T10:30:51;1.55;;;0.88;;
18170;SDS011;9210;48.358;10.902;2022-10-16T10:33:25;3.30;;;0.85;;
18170;SDS011;9210;48.358;10.902;2022-10-16T10:35:59;1.83;;;0.90;;
18170;SDS011;9210;48.358;10.902;2022-10-16T10:38:31;3.88;;;1.20;;
18170;SDS011;9210;48.358;10.902;2022-10-16T10:41:04;1.50;;;0.90;;
18170;SDS011;9210;48.358;10.902;2022-10-16T10:43:42;2.05;;;1.10;;
18170;SDS011;9210;48.358;10.902;2022-10-16T10:46:16;2.10;;;0.90;;
18170;SDS011;9210;48.358;10.902;2022-10-16T10:48:50;2.45;;;1.13;;
18170;SDS011;9210;48.358;10.902;2022-10-16T10:51:21;4.40;;;0.93;;
18170;SDS011;9210;48.358;10.902;2022-10-16T10:53:52;4.05;;;1.10;;
18170;SDS011;9210;48.358;10.902;2022-10-16T10:56:28;1.95;;;1.00;;
18170;SDS011;9210;48.358;10.902;2022-10-16T10:59:08;2.83;;;1.40;;
18170;SDS011;9210;48.358;10.902;2022-10-16T11:01:43;1.70;;;0.98;;
18170;SDS011;9210;48.358;10.902;2022-10-16T11:07:13;2.70;;;1.00;;
18170;SDS011;9210;48.358;10.902;2022-10-16T11:09:44;1.02;;;0.85;;
18170;SDS011;9210;48.358;10.902;2022-10-16T11:12:15;2.45;;;0.90;;
18170;SDS011;9210;48.358;10.902;2022-10-16T11:14:46;2.88;;;0.88;;
18170;SDS011;9210;48.358;10.902;2022-10-16T11:17:16;1.67;;;0.77;;
18170;SDS011;9210;48.358;10.902;2022-10-16T11:19:48;1.90;;;0.90;;
18170;SDS011;9210;48.358;10.902;2022-10-16T11:22:19;1.33;;;0.82;;
18170;SDS011;9210;48.358;10.902;2022-10-16T11:24:48;1.48;;;0.90;;
18170;SDS011;9210;48.358;10.902;2022-10-16T11:27:21;2.47;;;0.90;;
18170;SDS011;9210;48.358;10.902;2022-10-16T11:29:52;3.25;;;0.80;;
18170;SDS011;9210;48.358;10.902;2022-10-16T11:32:22;0.90;;;0.65;;
18170;SDS011;9210;48.358;10.902;2022-10-16T11:34:53;2.42;;;0.85;;
18170;SDS011;9210;48.358;10.902;2022-10-16T11:37:27;4.97;;;0.80;;
18170;SDS011;9210;48.358;10.902;2022-10-16T11:39:58;1.85;;;0.82;;
18170;SDS011;9210;48.358;10.902;2022-10-16T11:42:32;1.10;;;0.70;;
18170;SDS011;9210;48.358;10.902;2022-10-16T11:45:03;1.42;;;0.80;;
18170;SDS011;9210;48.358;10.902;2022-10-16T11:47:36;2.78;;;0.75;;
18170;SDS011;9210;48.358;10.902;2022-10-16T11:50:26;0.80;;;0.68;;
18170;SDS011;9210;48.358;10.902;2022-10-16T11:53:00;2.38;;;0.70;;
18170;SDS011;9210;48.358;10.902;2022-10-16T11:55:30;1.45;;;0.55;;
18170;SDS011;9210;48.358;10.902;2022-10-16T11:58:00;2.45;;;0.88;;
18170;SDS011;9210;48.358;10.902;2022-10-16T12:00:31;3.35;;;0.70;;
18170;SDS011;9210;48.358;10.902;2022-10-16T12:03:03;2.38;;;1.00;;
18170;SDS011;9210;48.358;10.902;2022-10-16T12:05:35;2.17;;;0.60;;
18170;SDS011;9210;48.358;10.902;2022-10-16T12:08:09;3.22;;;0.80;;
18170;SDS011;9210;48.358;10.902;2022-10-16T12:10:39;1.77;;;0.93;;
18170;SDS011;9210;48.358;10.902;2022-10-16T12:13:28;4.90;;;0.70;;
18170;SDS011;9210;48.358;10.902;2022-10-16T12:16:04;1.77;;;0.60;;
18170;SDS011;9210;48.358;10.902;2022-10-16T12:18:32;4.30;;;0.88;;
18170;SDS011;9210;48.358;10.902;2022-10-16T12:21:01;2.35;;;0.70;;
18170;SDS011;9210;48.358;10.902;2022-10-16T12:23:36;1.55;;;0.70;;
18170;SDS011;9210;48.358;10.902;2022-10-16T12:26:05;0.80;;;0.60;;
18170;SDS011;9210;48.358;10.902;2022-10-16T12:28:33;2.25;;;0.75;;
18170;SDS011;9210;48.358;10.902;2022-10-16T12:31:03;2.45;;;0.80;;
18170;SDS011;9210;48.358;10.902;2022-10-16T12:33:33;1.70;;;0.80;;
18170;SDS011;9210;48.358;10.902;2022-10-16T12:36:03;2.05;;;0.77;;
18170;SDS011;9210;48.358;10.902;2022-10-16T12:38:44;2.00;;;0.60;;
18170;SDS011;9210;48.358;10.902;2022-10-16T12:41:23;2.25;;;0.70;;
18170;SDS011;9210;48.358;10.902;2022-10-16T12:43:52;0.88;;;0.60;;
18170;SDS011;9210;48.358;10.902;2022-10-16T12:46:38;1.50;;;0.57;;
18170;SDS011;9210;48.358;10.902;2022-10-16T12:49:17;2.45;;;0.63;;
18170;SDS011;9210;48.358;10.902;2022-10-16T12:51:47;0.75;;;0.50;;
18170;SDS011;9210;48.358;10.902;2022-10-16T12:54:18;3.45;;;0.55;;
18170;SDS011;9210;48.358;10.902;2022-10-16T12:56:50;1.50;;;0.50;;
18170;SDS011;9210;48.358;10.902;2022-10-16T12:59:24;1.60;;;0.90;;
18170;SDS011;9210;48.358;10.902;2022-10-16T13:02:08;2.67;;;0.80;;
18170;SDS011;9210;48.358;10.902;2022-10-16T13:04:45;3.65;;;0.82;;
18170;SDS011;9210;48.358;10.902;2022-10-16T13:07:18;1.98;;;0.70;;
18170;SDS011;9210;48.358;10.902;2022-10-16T13:09:52;1.55;;;0.60;;
18170;SDS011;9210;48.358;10.902;2022-10-16T13:12:31;3.30;;;0.80;;
18170;SDS011;9210;48.358;10.902;2022-10-16T13:15:12;0.77;;;0.60;;
18170;SDS011;9210;48.358;10.902;2022-10-16T13:17:45;2.20;;;0.70;;
18170;SDS011;9210;48.358;10.902;2022-10-16T13:20:20;1.33;;;0.70;;
18170;SDS011;9210;48.358;10.902;2022-10-16T13:22:51;0.63;;;0.60;;
18170;SDS011;9210;48.358;10.902;2022-10-16T13:25:27;1.23;;;0.70;;
18170;SDS011;9210;48.358;10.902;2022-10-16T13:27:59;2.08;;;0.60;;
18170;SDS011;9210;48.358;10.902;2022-10-16T13:30:28;0.90;;;0.60;;
18170;SDS011;9210;48.358;10.902;2022-10-16T13:33:04;1.42;;;0.70;;
18170;SDS011;9210;48.358;10.902;2022-10-16T13:35:35;4.43;;;0.82;;
18170;SDS011;9210;48.358;10.902;2022-10-16T13:38:04;1.67;;;0.80;;
18170;SDS011;9210;48.358;10.902;2022-10-16T13:40:34;3.33;;;0.55;;
18170;SDS011;9210;48.358;10.902;2022-10-16T13:43:03;3.17;;;0.70;;
18170;SDS011;9210;48.358;10.902;2022-10-16T13:45:31;2.47;;;0.70;;
18170;SDS011;9210;48.358;10.902;2022-10-16T13:48:03;1.58;;;0.80;;
18170;SDS011;9210;48.358;10.902;2022-10-16T13:50:31;0.70;;;0.60;;
18170;SDS011;9210;48.358;10.902;2022-10-16T13:53:06;3.67;;;0.90;;
18170;SDS011;9210;48.358;10.902;2022-10-16T13:55:36;0.80;;;0.70;;
18170;SDS011;9210;48.358;10.902;2022-10-16T13:58:07;2.42;;;0.68;;
18170;SDS011;9210;48.358;10.902;2022-10-16T14:00:37;1.65;;;0.70;;
18170;SDS011;9210;48.358;10.902;2022-10-16T14:03:06;1.30;;;0.80;;
18170;SDS011;9210;48.358;10.902;2022-10-16T14:05:35;4.80;;;0.95;;
18170;SDS011;9210;48.358;10.902;2022-10-16T14:08:04;1.27;;;0.70;;
18170;SDS011;9210;48.358;10.902;2022-10-16T14:10:33;2.42;;;0.80;;
18170;SDS011;9210;48.358;10.902;2022-10-16T14:13:03;1.52;;;0.80;;
18170;SDS011;9210;48.358;10.902;2022-10-16T14:15:33;2.50;;;0.85;;
18170;SDS011;9210;48.358;10.902;2022-10-16T14:18:01;2.20;;;0.75;;
18170;SDS011;9210;48.358;10.902;2022-10-16T14:20:32;1.25;;;0.90;;
18170;SDS011;9210;48.358;10.902;2022-10-16T14:23:01;1.35;;;0.90;;
18170;SDS011;9210;48.358;10.902;2022-10-16T14:25:32;2.33;;;1.10;;
18170;SDS011;9210;48.358;10.902;2022-10-16T14:28:01;1.60;;;0.93;;
18170;SDS011;9210;48.358;10.902;2022-10-16T14:30:32;1.85;;;0.70;;
18170;SDS011;9210;48.358;10.902;2022-10-16T14:33:02;2.10;;;0.60;;
18170;SDS011;9210;48.358;10.902;2022-10-16T14:35:32;1.05;;;0.70;;
18170;SDS011;9210;48.358;10.902;2022-10-16T14:38:01;0.70;;;0.60;;
18170;SDS011;9210;48.358;10.902;2022-10-16T14:40:31;1.13;;;0.52;;
18170;SDS011;9210;48.358;10.902;2022-10-16T14:42:59;1.83;;;0.70;;
18170;SDS011;9210;48.358;10.902;2022-10-16T14:45:29;2.50;;;0.70;;
18170;SDS011;9210;48.358;10.902;2022-10-16T14:48:00;2.40;;;0.80;;
18170;SDS011;9210;48.358;10.902;2022-10-16T14:50:30;3.35;;;0.68;;
18170;SDS011;9210;48.358;10.902;2022-10-16T14:52:58;3.05;;;0.90;;
18170;SDS011;9210;48.358;10.902;2022-10-16T14:55:27;1.88;;;0.85;;
18170;SDS011;9210;48.358;10.902;2022-10-16T14:57:55;3.25;;;0.88;;
18170;SDS011;9210;48.358;10.902;2022-10-16T15:00:26;3.85;;;1.30;;
18170;SDS011;9210;48.358;10.902;2022-10-16T15:02:54;5.43;;;1.40;;
18170;SDS011;9210;48.358;10.902;2022-10-16T15:05:25;4.43;;;1.65;;
18170;SDS011;9210;48.358;10.902;2022-10-16T15:07:54;4.82;;;1.50;;
18170;SDS011;9210;48.358;10.902;2022-10-16T15:10:24;3.70;;;1.70;;
18170;SDS011;9210;48.358;10.902;2022-10-16T15:12:54;5.07;;;1.70;;
18170;SDS011;9210;48.358;10.902;2022-10-16T15:18:09;4.60;;;1.80;;
18170;SDS011;9210;48.358;10.902;2022-10-16T15:20:39;2.60;;;1.50;;